sensor_id;sensor_type;location;lat;lon;timestamp;P1;durP1;ratioP1;P2;durP2;ratioP2
24567;SDS011;12731;52.182;8.716;2023-04-25T06:33:00;24.67;;;5.25;;
24567;SDS011;12731;52.182;8.716;2023-04-25T06:35:26;17.13;;;5.63;;
24567;SDS011;12731;52.182;8.716;2023-04-25T06:37:53;23.13;;;5.78;;
24567;SDS011;12731;52.182;8.716;2023-04-25T06:40:19;25.70;;;5.35;;
24567;SDS011;12731;52.182;8.716;2023-04-25T06:42:45;20.73;;;4.45;;
24567;SDS011;12731;52.182;8.716;2023-04-25T06:45:12;16.27;;;4.50;;
24567;SDS011;12731;52.182;8.716;2023-04-25T06:47:38;21.08;;;4.70;;
24567;SDS011;12731;52.182;8.716;2023-04-25T06:50:05;24.20;;;5.53;;
24567;SDS011;12731;52.182;8.716;2023-04-25T06:52:32;19.73;;;5.22;;
24567;SDS011;12731;52.182;8.716;2023-04-25T06:55:01;20.95;;;4.70;;
24567;SDS011;12731;52.182;8.716;2023-04-25T06:57:28;18.00;;;4.40;;
24567;SDS011;12731;52.182;8.716;2023-04-25T06:59:55;17.15;;;4.53;;
24567;SDS011;12731;52.182;8.716;2023-04-25T07:02:21;14.60;;;4.10;;
24567;SDS011;12731;52.182;8.716;2023-04-25T07:04:48;16.92;;;4.57;;
24567;SDS011;12731;52.182;8.716;2023-04-25T07:07:15;24.50;;;4.65;;
24567;SDS011;12731;52.182;8.716;2023-04-25T07:09:43;21.00;;;4.43;;
24567;SDS011;12731;52.182;8.716;2023-04-25T07:12:09;19.42;;;4.90;;
24567;SDS011;12731;52.182;8.716;2023-04-25T07:14:35;20.30;;;4.70;;
24567;SDS011;12731;52.182;8.716;2023-04-25T07:17:02;16.45;;;4.10;;
24567;SDS011;12731;52.182;8.716;2023-04-25T07:19:28;19.58;;;4.18;;
24567;SDS011;12731;52.182;8.716;2023-04-25T07:21:55;12.93;;;3.60;;
24567;SDS011;12731;52.182;8.716;2023-04-25T07:24:22;12.13;;;4.35;;
24567;SDS011;12731;52.182;8.716;2023-04-25T07:26:48;13.05;;;3.17;;
24567;SDS011;12731;52.182;8.716;2023-04-25T07:29:14;17.35;;;3.65;;
24567;SDS011;12731;52.182;8.716;2023-04-25T07:31:41;12.93;;;3.78;;
24567;SDS011;12731;52.182;8.716;2023-04-25T07:34:08;14.75;;;3.50;;
24567;SDS011;12731;52.182;8.716;2023-04-25T07:36:34;16.45;;;3.42;;
24567;SDS011;12731;52.182;8.716;2023-04-25T07:39:01;17.85;;;3.28;;
24567;SDS011;12731;52.182;8.716;2023-04-25T07:41:27;13.57;;;3.35;;
24567;SDS011;12731;52.182;8.716;2023-04-25T07:43:53;13.95;;;3.03;;
24567;SDS011;12731;52.182;8.716;2023-04-25T07:46:20;15.85;;;3.90;;
24567;SDS011;12731;52.182;8.716;2023-04-25T07:48:46;12.02;;;3.05;;
24567;SDS011;12731;52.182;8.716;2023-04-25T07:51:13;14.20;;;2.80;;
24567;SDS011;12731;52.182;8.716;2023-04-25T07:53:39;15.90;;;3.80;;
24567;SDS011;12731;52.182;8.716;2023-04-25T07:56:06;12.93;;;2.95;;
24567;SDS011;12731;52.182;8.716;2023-04-25T07:58:33;11.43;;;2.95;;
24567;SDS011;12731;52.182;8.716;2023-04-25T08:00:59;11.23;;;2.63;;
24567;SDS011;12731;52.182;8.716;2023-04-25T08:03:25;12.55;;;2.78;;
24567;SDS011;12731;52.182;8.716;2023-04-25T08:05:52;13.38;;;3.38;;
24567;SDS011;12731;52.182;8.716;2023-04-25T08:08:19;11.88;;;3.00;;
24567;SDS011;12731;52.182;8.716;2023-04-25T08:10:46;9.23;;;2.70;;
24567;SDS011;12731;52.182;8.716;2023-04-25T08:13:14;11.50;;;3.22;;
24567;SDS011;12731;52.182;8.716;2023-04-25T08:15:40;7.60;;;2.28;;
24567;SDS011;12731;52.182;8.716;2023-04-25T08:18:06;14.50;;;2.97;;
24567;SDS011;12731;52.182;8.716;2023-04-25T08:20:33;11.77;;;3.22;;
24567;SDS011;12731;52.182;8.716;2023-04-25T08:23:00;12.43;;;3.00;;
24567;SDS011;12731;52.182;8.716;2023-04-25T08:25:26;13.10;;;3.10;;
24567;SDS011;12731;52.182;8.716;2023-04-25T08:27:52;13.75;;;3.08;;
24567;SDS011;12731;52.182;8.716;2023-04-25T08:30:19;9.95;;;2.50;;
24567;SDS011;12731;52.182;8.716;2023-04-25T08:32:45;11.70;;;2.30;;
24567;SDS011;12731;52.182;8.716;2023-04-25T08:35:12;9.05;;;2.42;;
24567;SDS011;12731;52.182;8.716;2023-04-25T08:37:38;8.82;;;2.40;;
24567;SDS011;12731;52.182;8.716;2023-04-25T08:40:05;9.95;;;2.10;;
24567;SDS011;12731;52.182;8.716;2023-04-25T08:42:33;8.32;;;2.33;;
24567;SDS011;12731;52.182;8.716;2023-04-25T08:45:01;11.45;;;2.58;;
24567;SDS011;12731;52.182;8.716;2023-04-25T08:47:31;10.25;;;2.05;;
24567;SDS011;12731;52.182;8.716;2023-04-25T08:49:59;12.23;;;2.83;;
24567;SDS011;12731;52.182;8.716;2023-04-25T08:52:27;7.75;;;2.10;;
24567;SDS011;12731;52.182;8.716;2023-04-25T08:54:55;11.57;;;2.45;;
24567;SDS011;12731;52.182;8.716;2023-04-25T08:57:23;12.15;;;3.00;;
24567;SDS011;12731;52.182;8.716;2023-04-25T08:59:49;5.43;;;1.88;;
24567;SDS011;12731;52.182;8.716;2023-04-25T09:02:16;9.00;;;2.58;;
24567;SDS011;12731;52.182;8.716;2023-04-25T09:04:44;8.68;;;2.25;;
24567;SDS011;12731;52.182;8.716;2023-04-25T09:07:11;10.98;;;2.17;;
24567;SDS011;12731;52.182;8.716;2023-04-25T09:09:38;9.70;;;2.47;;
24567;SDS011;12731;52.182;8.716;2023-04-25T09:12:05;9.65;;;2.90;;
24567;SDS011;12731;52.182;8.716;2023-04-25T09:14:31;13.77;;;2.80;;
24567;SDS011;12731;52.182;8.716;2023-04-25T09:17:02;8.43;;;2.60;;
24567;SDS011;12731;52.182;8.716;2023-04-25T09:19:35;10.57;;;2.42;;
24567;SDS011;12731;52.182;8.716;2023-04-25T09:22:07;7.28;;;2.72;;
24567;SDS011;12731;52.182;8.716;2023-04-25T09:24:41;10.95;;;2.65;;
24567;SDS011;12731;52.182;8.716;2023-04-25T09:27:11;6.22;;;2.15;;
24567;SDS011;12731;52.182;8.716;2023-04-25T09:29:39;10.02;;;2.45;;
24567;SDS011;12731;52.182;8.716;2023-04-25T09:32:19;9.68;;;2.00;;
24567;SDS011;12731;52.182;8.716;2023-04-25T09:34:48;11.27;;;2.20;;
24567;SDS011;12731;52.182;8.716;2023-04-25T09:37:23;9.98;;;2.10;;
24567;SDS011;12731;52.182;8.716;2023-04-25T09:39:54;10.30;;;2.60;;
24567;SDS011;12731;52.182;8.716;2023-04-25T09:42:22;12.45;;;2.78;;
24567;SDS011;12731;52.182;8.716;2023-04-25T09:44:51;9.23;;;2.40;;
24567;SDS011;12731;52.182;8.716;2023-04-25T09:47:19;6.07;;;1.90;;
24567;SDS011;12731;52.182;8.716;2023-04-25T09:49:47;7.82;;;1.90;;
24567;SDS011;12731;52.182;8.716;2023-04-25T09:52:16;7.13;;;2.08;;
24567;SDS011;12731;52.182;8.716;2023-04-25T09:54:44;9.55;;;2.28;;
24567;SDS011;12731;52.182;8.716;2023-04-25T09:57:12;9.35;;;2.25;;
24567;SDS011;12731;52.182;8.716;2023-04-25T09:59:44;10.10;;;2.30;;
24567;SDS011;12731;52.182;8.716;2023-04-25T10:02:11;7.15;;;2.22;;
24567;SDS011;12731;52.182;8.716;2023-04-25T10:04:38;8.43;;;2.20;;
24567;SDS011;12731;52.182;8.716;2023-04-25T10:07:05;7.18;;;2.08;;
24567;SDS011;12731;52.182;8.716;2023-04-25T10:09:33;11.15;;;2.00;;
24567;SDS011;12731;52.182;8.716;2023-04-25T10:12:00;7.95;;;2.00;;
24567;SDS011;12731;52.182;8.716;2023-04-25T10:14:26;7.38;;;2.22;;
24567;SDS011;12731;52.182;8.716;2023-04-25T10:16:53;6.70;;;1.90;;
24567;SDS011;12731;52.182;8.716;2023-04-25T10:19:20;6.25;;;1.60;;
24567;SDS011;12731;52.182;8.716;2023-04-25T10:21:55;5.65;;;1.77;;
24567;SDS011;12731;52.182;8.716;2023-04-25T10:24:32;9.30;;;1.75;;
24567;SDS011;12731;52.182;8.716;2023-04-25T10:26:58;7.38;;;1.60;;
24567;SDS011;12731;52.182;8.716;2023-04-25T10:29:25;7.88;;;1.75;;
24567;SDS011;12731;52.182;8.716;2023-04-25T10:31:52;6.20;;;1.55;;
24567;SDS011;12731;52.182;8.716;2023-04-25T10:34:19;5.07;;;1.50;;
24567;SDS011;12731;52.182;8.716;2023-04-25T10:36:50;5.03;;;1.60;;
24567;SDS011;12731;52.182;8.716;2023-04-25T10:39:24;4.32;;;1.35;;
24567;SDS011;12731;52.182;8.716;2023-04-25T10:41:58;5.72;;;1.55;;
24567;SDS011;12731;52.182;8.716;2023-04-25T10:44:28;6.68;;;2.05;;
24567;SDS011;12731;52.182;8.716;2023-04-25T10:46:56;4.80;;;2.20;;
24567;SDS011;12731;52.182;8.716;2023-04-25T10:49:31;5.70;;;1.63;;
24567;SDS011;12731;52.182;8.716;2023-04-25T10:52:16;5.00;;;1.77;;
24567;SDS011;12731;52.182;8.716;2023-04-25T10:54:48;4.95;;;1.40;;
24567;SDS011;12731;52.182;8.716;2023-04-25T10:57:27;4.07;;;1.40;;
24567;SDS011;12731;52.182;8.716;2023-04-25T11:00:05;5.13;;;1.20;;
24567;SDS011;12731;52.182;8.716;2023-04-25T11:05:20;5.65;;;1.33;;
24567;SDS011;12731;52.182;8.716;2023-04-25T11:08:00;5.00;;;1.65;;
24567;SDS011;12731;52.182;8.716;2023-04-25T11:10:33;6.70;;;1.40;;
24567;SDS011;12731;52.182;8.716;2023-04-25T11:13:01;4.38;;;1.48;;
24567;SDS011;12731;52.182;8.716;2023-04-25T11:15:28;10.77;;;1.55;;
24567;SDS011;12731;52.182;8.716;2023-04-25T11:17:54;5.97;;;1.63;;
24567;SDS011;12731;52.182;8.716;2023-04-25T11:20:22;8.00;;;1.50;;
24567;SDS011;12731;52.182;8.716;2023-04-25T11:22:48;10.30;;;2.08;;
24567;SDS011;12731;52.182;8.716;2023-04-25T11:25:17;7.45;;;1.98;;
24567;SDS011;12731;52.182;8.716;2023-04-25T11:27:51;8.30;;;2.22;;
24567;SDS011;12731;52.182;8.716;2023-04-25T11:30:22;8.50;;;1.95;;
24567;SDS011;12731;52.182;8.716;2023-04-25T11:32:49;7.10;;;1.80;;
24567;SDS011;12731;52.182;8.716;2023-04-25T11:35:16;6.95;;;1.90;;
24567;SDS011;12731;52.182;8.716;2023-04-25T11:37:43;7.93;;;1.63;;
24567;SDS011;12731;52.182;8.716;2023-04-25T11:40:10;8.93;;;1.88;;
24567;SDS011;12731;52.182;8.716;2023-04-25T11:42:38;5.28;;;1.70;;
24567;SDS011;12731;52.182;8.716;2023-04-25T11:45:11;5.68;;;1.75;;
24567;SDS011;12731;52.182;8.716;2023-04-25T11:47:39;4.93;;;2.05;;
24567;SDS011;12731;52.182;8.716;2023-04-25T11:50:06;3.10;;;1.35;;
24567;SDS011;12731;52.182;8.716;2023-04-25T11:52:40;5.22;;;1.52;;
24567;SDS011;12731;52.182;8.716;2023-04-25T11:55:15;7.57;;;1.70;;
24567;SDS011;12731;52.182;8.716;2023-04-25T11:57:46;3.58;;;1.20;;
24567;SDS011;12731;52.182;8.716;2023-04-25T12:00:20;5.70;;;1.48;;
24567;SDS011;12731;52.182;8.716;2023-04-25T12:02:52;4.22;;;1.40;;
24567;SDS011;12731;52.182;8.716;2023-04-25T12:05:23;8.32;;;1.70;;
24567;SDS011;12731;52.182;8.716;2023-04-25T12:07:54;4.13;;;1.50;;
24567;SDS011;12731;52.182;8.716;2023-04-25T12:10:20;4.75;;;1.67;;
24567;SDS011;12731;52.182;8.716;2023-04-25T12:12:47;4.20;;;1.38;;
24567;SDS011;12731;52.182;8.716;2023-04-25T12:15:15;6.00;;;1.30;;
24567;SDS011;12731;52.182;8.716;2023-04-25T12:17:49;4.03;;;0.85;;
24567;SDS011;12731;52.182;8.716;2023-04-25T12:20:17;6.10;;;1.90;;
24567;SDS011;12731;52.182;8.716;2023-04-25T12:22:46;5.30;;;1.40;;
24567;SDS011;12731;52.182;8.716;2023-04-25T12:25:20;4.03;;;1.20;;
24567;SDS011;12731;52.182;8.716;2023-04-25T12:33:32;4.00;;;1.70;;
24567;SDS011;12731;52.182;8.716;2023-04-25T12:36:00;3.55;;;1.27;;
24567;SDS011;12731;52.182;8.716;2023-04-25T12:38:33;4.10;;;1.48;;
24567;SDS011;12731;52.182;8.716;2023-04-25T12:41:02;6.82;;;1.33;;
24567;SDS011;12731;52.182;8.716;2023-04-25T12:43:28;4.80;;;1.40;;
24567;SDS011;12731;52.182;8.716;2023-04-25T12:45:55;5.15;;;1.33;;
24567;SDS011;12731;52.182;8.716;2023-04-25T12:48:22;3.72;;;1.35;;
24567;SDS011;12731;52.182;8.716;2023-04-25T12:50:49;3.58;;;1.30;;
24567;SDS011;12731;52.182;8.716;2023-04-25T12:53:16;4.25;;;1.30;;
24567;SDS011;12731;52.182;8.716;2023-04-25T12:55:46;4.53;;;1.58;;
24567;SDS011;12731;52.182;8.716;2023-04-25T12:58:14;4.25;;;1.30;;
24567;SDS011;12731;52.182;8.716;2023-04-25T13:00:41;4.60;;;1.30;;
24567;SDS011;12731;52.182;8.716;2023-04-25T13:03:08;4.85;;;1.25;;
24567;SDS011;12731;52.182;8.716;2023-04-25T13:05:35;3.63;;;1.15;;
24567;SDS011;12731;52.182;8.716;2023-04-25T13:08:02;5.90;;;1.10;;
24567;SDS011;12731;52.182;8.716;2023-04-25T13:10:29;6.10;;;1.33;;
24567;SDS011;12731;52.182;8.716;2023-04-25T13:12:55;3.75;;;1.23;;
24567;SDS011;12731;52.182;8.716;2023-04-25T13:15:22;4.35;;;1.20;;
24567;SDS011;12731;52.182;8.716;2023-04-25T13:17:49;5.10;;;1.52;;
24567;SDS011;12731;52.182;8.716;2023-04-25T13:20:15;5.18;;;1.40;;
24567;SDS011;12731;52.182;8.716;2023-04-25T13:22:42;6.30;;;1.40;;
24567;SDS011;12731;52.182;8.716;2023-04-25T13:25:09;4.03;;;1.45;;
24567;SDS011;12731;52.182;8.716;2023-04-25T13:27:35;3.72;;;1.20;;
24567;SDS011;12731;52.182;8.716;2023-04-25T13:30:03;2.92;;;0.98;;
24567;SDS011;12731;52.182;8.716;2023-04-25T13:32:33;4.40;;;0.90;;
24567;SDS011;12731;52.182;8.716;2023-04-25T13:35:03;3.63;;;1.30;;
24567;SDS011;12731;52.182;8.716;2023-04-25T13:37:35;3.35;;;1.05;;
24567;SDS011;12731;52.182;8.716;2023-04-25T13:40:02;4.35;;;1.15;;
24567;SDS011;12731;52.182;8.716;2023-04-25T13:42:31;4.00;;;1.10;;
24567;SDS011;12731;52.182;8.716;2023-04-25T13:44:58;4.57;;;1.00;;
24567;SDS011;12731;52.182;8.716;2023-04-25T13:47:25;2.58;;;1.20;;
24567;SDS011;12731;52.182;8.716;2023-04-25T13:49:51;2.33;;;1.00;;
24567;SDS011;12731;52.182;8.716;2023-04-25T13:52:18;4.68;;;1.10;;
24567;SDS011;12731;52.182;8.716;2023-04-25T13:54:44;2.35;;;0.90;;
24567;SDS011;12731;52.182;8.716;2023-04-25T13:57:11;3.65;;;1.00;;
24567;SDS011;12731;52.182;8.716;2023-04-25T13:59:38;4.47;;;1.40;;
24567;SDS011;12731;52.182;8.716;2023-04-25T14:02:05;3.33;;;1.20;;
24567;SDS011;12731;52.182;8.716;2023-04-25T14:04:31;5.68;;;1.38;;
24567;SDS011;12731;52.182;8.716;2023-04-25T14:06:58;2.95;;;1.20;;
24567;SDS011;12731;52.182;8.716;2023-04-25T14:09:24;4.07;;;1.20;;
24567;SDS011;12731;52.182;8.716;2023-04-25T14:11:51;4.20;;;1.10;;
24567;SDS011;12731;52.182;8.716;2023-04-25T14:14:21;3.10;;;1.00;;
24567;SDS011;12731;52.182;8.716;2023-04-25T14:16:48;5.22;;;1.30;;
24567;SDS011;12731;52.182;8.716;2023-04-25T14:19:14;3.15;;;1.20;;
24567;SDS011;12731;52.182;8.716;2023-04-25T14:21:41;4.60;;;1.42;;
24567;SDS011;12731;52.182;8.716;2023-04-25T14:24:09;2.95;;;1.00;;
24567;SDS011;12731;52.182;8.716;2023-04-25T14:26:36;7.07;;;1.40;;
24567;SDS011;12731;52.182;8.716;2023-04-25T14:29:04;3.90;;;1.40;;
24567;SDS011;12731;52.182;8.716;2023-04-25T14:31:31;3.35;;;1.45;;
24567;SDS011;12731;52.182;8.716;2023-04-25T14:33:58;4.40;;;1.42;;
24567;SDS011;12731;52.182;8.716;2023-04-25T14:36:25;2.95;;;1.15;;
24567;SDS011;12731;52.182;8.716;2023-04-25T14:38:52;4.53;;;1.20;;
24567;SDS011;12731;52.182;8.716;2023-04-25T14:41:18;4.53;;;1.45;;
24567;SDS011;12731;52.182;8.716;2023-04-25T14:43:45;6.22;;;1.65;;
24567;SDS011;12731;52.182;8.716;2023-04-25T14:46:12;5.05;;;1.50;;
24567;SDS011;12731;52.182;8.716;2023-04-25T14:48:38;5.15;;;1.40;;
24567;SDS011;12731;52.182;8.716;2023-04-25T14:51:05;3.75;;;1.38;;
24567;SDS011;12731;52.182;8.716;2023-04-25T14:53:31;5.18;;;1.52;;
24567;SDS011;12731;52.182;8.716;2023-04-25T14:55:58;4.25;;;1.55;;
24567;SDS011;12731;52.182;8.716;2023-04-25T14:58:24;4.07;;;1.20;;
24567;SDS011;12731;52.182;8.716;2023-04-25T15:00:51;5.45;;;1.58;;
24567;SDS011;12731;52.182;8.716;2023-04-25T15:03:18;4.25;;;1.30;;
24567;SDS011;12731;52.182;8.716;2023-04-25T15:05:45;1.45;;;0.85;;
24567;SDS011;12731;52.182;8.716;2023-04-25T15:08:11;4.18;;;1.20;;
24567;SDS011;12731;52.182;8.716;2023-04-25T15:10:38;4.35;;;1.38;;
24567;SDS011;12731;52.182;8.716;2023-04-25T15:13:04;4.70;;;1.48;;
24567;SDS011;12731;52.182;8.716;2023-04-25T15:15:31;6.53;;;1.70;;
24567;SDS011;12731;52.182;8.716;2023-04-25T15:17:57;4.47;;;1.60;;
24567;SDS011;12731;52.182;8.716;2023-04-25T15:20:24;5.38;;;1.40;;
24567;SDS011;12731;52.182;8.716;2023-04-25T15:22:51;5.05;;;1.42;;
24567;SDS011;12731;52.182;8.716;2023-04-25T15:25:17;6.65;;;1.52;;
24567;SDS011;12731;52.182;8.716;2023-04-25T15:27:44;5.15;;;1.38;;
24567;SDS011;12731;52.182;8.716;2023-04-25T15:30:13;4.20;;;1.50;;
24567;SDS011;12731;52.182;8.716;2023-04-25T15:32:43;5.75;;;1.90;;
24567;SDS011;12731;52.182;8.716;2023-04-25T15:35:10;6.75;;;1.40;;
24567;SDS011;12731;52.182;8.716;2023-04-25T15:37:37;4.70;;;1.73;;
24567;SDS011;12731;52.182;8.716;2023-04-25T15:40:05;3.13;;;1.50;;
24567;SDS011;12731;52.182;8.716;2023-04-25T15:42:46;2.78;;;1.40;;
24567;SDS011;12731;52.182;8.716;2023-04-25T15:45:14;5.25;;;1.60;;
24567;SDS011;12731;52.182;8.716;2023-04-25T15:47:42;4.72;;;1.52;;
24567;SDS011;12731;52.182;8.716;2023-04-25T15:50:09;5.05;;;1.67;;
24567;SDS011;12731;52.182;8.716;2023-04-25T15:52:36;4.57;;;1.50;;
24567;SDS011;12731;52.182;8.716;2023-04-25T15:55:04;5.15;;;1.50;;
24567;SDS011;12731;52.182;8.716;2023-04-25T15:57:32;4.10;;;1.52;;
24567;SDS011;12731;52.182;8.716;2023-04-25T15:59:58;4.28;;;1.80;;
24567;SDS011;12731;52.182;8.716;2023-04-25T16:02:25;6.97;;;1.55;;
24567;SDS011;12731;52.182;8.716;2023-04-25T16:04:52;6.18;;;1.40;;
24567;SDS011;12731;52.182;8.716;2023-04-25T16:07:18;5.32;;;1.20;;
24567;SDS011;12731;52.182;8.716;2023-04-25T16:09:45;4.95;;;1.40;;
24567;SDS011;12731;52.182;8.716;2023-04-25T16:12:12;5.50;;;1.60;;
24567;SDS011;12731;52.182;8.716;2023-04-25T16:14:38;4.15;;;1.50;;
24567;SDS011;12731;52.182;8.716;2023-04-25T16:17:05;3.20;;;1.23;;
24567;SDS011;12731;52.182;8.716;2023-04-25T16:19:31;4.10;;;1.10;;
24567;SDS011;12731;52.182;8.716;2023-04-25T16:21:58;1.98;;;0.88;;
24567;SDS011;12731;52.182;8.716;2023-04-25T16:24:24;3.15;;;1.23;;
24567;SDS011;12731;52.182;8.716;2023-04-25T16:26:51;3.03;;;1.20;;
24567;SDS011;12731;52.182;8.716;2023-04-25T16:29:17;4.00;;;1.10;;
24567;SDS011;12731;52.182;8.716;2023-04-25T16:31:43;4.60;;;1.30;;
24567;SDS011;12731;52.182;8.716;2023-04-25T16:34:12;2.90;;;1.00;;
24567;SDS011;12731;52.182;8.716;2023-04-25T16:36:40;2.38;;;1.15;;
24567;SDS011;12731;52.182;8.716;2023-04-25T16:39:06;4.78;;;1.15;;
24567;SDS011;12731;52.182;8.716;2023-04-25T16:41:33;4.30;;;1.30;;
24567;SDS011;12731;52.182;8.716;2023-04-25T16:44:00;3.65;;;1.52;;
24567;SDS011;12731;52.182;8.716;2023-04-25T16:46:26;3.35;;;1.30;;
24567;SDS011;12731;52.182;8.716;2023-04-25T16:48:53;4.70;;;1.55;;
24567;SDS011;12731;52.182;8.716;2023-04-25T16:51:19;3.80;;;1.70;;
24567;SDS011;12731;52.182;8.716;2023-04-25T16:53:45;4.70;;;1.75;;
24567;SDS011;12731;52.182;8.716;2023-04-25T16:56:13;7.18;;;1.88;;
24567;SDS011;12731;52.182;8.716;2023-04-25T16:58:39;4.93;;;1.35;;
24567;SDS011;12731;52.182;8.716;2023-04-25T17:01:06;2.80;;;1.17;;
24567;SDS011;12731;52.182;8.716;2023-04-25T17:03:33;4.40;;;1.30;;
24567;SDS011;12731;52.182;8.716;2023-04-25T17:06:01;3.97;;;1.30;;
24567;SDS011;12731;52.182;8.716;2023-04-25T17:08:27;4.50;;;1.23;;
24567;SDS011;12731;52.182;8.716;2023-04-25T17:10:54;3.33;;;1.58;;
24567;SDS011;12731;52.182;8.716;2023-04-25T17:13:20;4.25;;;1.77;;
24567;SDS011;12731;52.182;8.716;2023-04-25T17:15:56;5.85;;;1.70;;
24567;SDS011;12731;52.182;8.716;2023-04-25T17:18:22;3.00;;;1.25;;
24567;SDS011;12731;52.182;8.716;2023-04-25T17:20:49;5.57;;;1.90;;
24567;SDS011;12731;52.182;8.716;2023-04-25T17:23:16;4.57;;;1.60;;
24567;SDS011;12731;52.182;8.716;2023-04-25T17:25:43;5.10;;;1.60;;
24567;SDS011;12731;52.182;8.716;2023-04-25T17:28:10;3.25;;;1.50;;
24567;SDS011;12731;52.182;8.716;2023-04-25T17:30:38;5.60;;;1.73;;
24567;SDS011;12731;52.182;8.716;2023-04-25T17:33:04;7.75;;;1.60;;
24567;SDS011;12731;52.182;8.716;2023-04-25T17:35:34;7.68;;;1.88;;
24567;SDS011;12731;52.182;8.716;2023-04-25T17:38:01;7.50;;;3.05;;
24567;SDS011;12731;52.182;8.716;2023-04-25T17:40:29;6.88;;;2.20;;
24567;SDS011;12731;52.182;8.716;2023-04-25T17:42:56;4.53;;;1.50;;
24567;SDS011;12731;52.182;8.716;2023-04-25T17:45:22;6.50;;;1.30;;
24567;SDS011;12731;52.182;8.716;2023-04-25T17:47:49;5.40;;;1.67;;
24567;SDS011;12731;52.182;8.716;2023-04-25T17:50:15;6.20;;;1.60;;
24567;SDS011;12731;52.182;8.716;2023-04-25T17:52:42;6.78;;;1.92;;
24567;SDS011;12731;52.182;8.716;2023-04-25T17:55:10;3.75;;;1.52;;
24567;SDS011;12731;52.182;8.716;2023-04-25T17:57:36;4.75;;;1.40;;
24567;SDS011;12731;52.182;8.716;2023-04-25T18:00:03;4.72;;;1.33;;
24567;SDS011;12731;52.182;8.716;2023-04-25T18:02:32;5.93;;;1.52;;
24567;SDS011;12731;52.182;8.716;2023-04-25T18:05:01;3.88;;;1.30;;
24567;SDS011;12731;52.182;8.716;2023-04-25T18:07:34;8.00;;;1.77;;
24567;SDS011;12731;52.182;8.716;2023-04-25T18:10:01;6.30;;;1.63;;
24567;SDS011;12731;52.182;8.716;2023-04-25T18:12:32;7.00;;;1.73;;
24567;SDS011;12731;52.182;8.716;2023-04-25T18:14:59;5.18;;;1.50;;
24567;SDS011;12731;52.182;8.716;2023-04-25T18:17:26;3.70;;;1.50;;
24567;SDS011;12731;52.182;8.716;2023-04-25T18:19:53;9.68;;;1.85;;
24567;SDS011;12731;52.182;8.716;2023-04-25T18:22:20;5.93;;;1.70;;
24567;SDS011;12731;52.182;8.716;2023-04-25T18:24:47;9.02;;;1.95;;
24567;SDS011;12731;52.182;8.716;2023-04-25T18:27:15;4.55;;;1.50;;
24567;SDS011;12731;52.182;8.716;2023-04-25T18:29:41;6.55;;;1.98;;
24567;SDS011;12731;52.182;8.716;2023-04-25T18:32:10;6.38;;;2.10;;
24567;SDS011;12731;52.182;8.716;2023-04-25T18:34:36;6.55;;;2.05;;
24567;SDS011;12731;52.182;8.716;2023-04-25T18:37:03;10.40;;;2.13;;
24567;SDS011;12731;52.182;8.716;2023-04-25T18:39:30;6.38;;;1.80;;
24567;SDS011;12731;52.182;8.716;2023-04-25T18:41:56;8.93;;;2.10;;
24567;SDS011;12731;52.182;8.716;2023-04-25T18:44:31;6.72;;;1.95;;
24567;SDS011;12731;52.182;8.716;2023-04-25T18:47:01;8.40;;;2.15;;
24567;SDS011;12731;52.182;8.716;2023-04-25T18:49:28;7.50;;;2.08;;
24567;SDS011;12731;52.182;8.716;2023-04-25T18:51:54;7.43;;;2.50;;
24567;SDS011;12731;52.182;8.716;2023-04-25T18:54:22;7.57;;;2.30;;
24567;SDS011;12731;52.182;8.716;2023-04-25T18:56:48;5.82;;;2.13;;
24567;SDS011;12731;52.182;8.716;2023-04-25T18:59:15;7.78;;;2.63;;
24567;SDS011;12731;52.182;8.716;2023-04-25T19:01:43;7.45;;;2.58;;
24567;SDS011;12731;52.182;8.716;2023-04-25T19:04:09;6.75;;;2.60;;
24567;SDS011;12731;52.182;8.716;2023-04-25T19:06:36;9.23;;;2.53;;
24567;SDS011;12731;52.182;8.716;2023-04-25T19:09:03;8.73;;;2.67;;
24567;SDS011;12731;52.182;8.716;2023-04-25T19:11:29;8.15;;;2.60;;
24567;SDS011;12731;52.182;8.716;2023-04-25T19:13:55;7.75;;;2.80;;
24567;SDS011;12731;52.182;8.716;2023-04-25T19:16:22;7.95;;;2.85;;
24567;SDS011;12731;52.182;8.716;2023-04-25T19:18:52;8.30;;;2.85;;
24567;SDS011;12731;52.182;8.716;2023-04-25T19:21:19;10.38;;;3.58;;
24567;SDS011;12731;52.182;8.716;2023-04-25T19:23:46;7.47;;;2.65;;
24567;SDS011;12731;52.182;8.716;2023-04-25T19:26:12;8.63;;;3.35;;
24567;SDS011;12731;52.182;8.716;2023-04-25T19:28:41;6.85;;;2.33;;
24567;SDS011;12731;52.182;8.716;2023-04-25T19:31:08;9.35;;;2.33;;
24567;SDS011;12731;52.182;8.716;2023-04-25T19:33:35;4.45;;;2.20;;
24567;SDS011;12731;52.182;8.716;2023-04-25T19:36:02;4.72;;;2.20;;
24567;SDS011;12731;52.182;8.716;2023-04-25T19:38:29;6.85;;;2.65;;
24567;SDS011;12731;52.182;8.716;2023-04-25T19:40:55;9.35;;;3.10;;
24567;SDS011;12731;52.182;8.716;2023-04-25T19:43:22;7.18;;;2.90;;
24567;SDS011;12731;52.182;8.716;2023-04-25T19:45:48;10.25;;;2.90;;
24567;SDS011;12731;52.182;8.716;2023-04-25T19:48:15;7.97;;;2.97;;
24567;SDS011;12731;52.182;8.716;2023-04-25T19:50:41;8.10;;;2.90;;
24567;SDS011;12731;52.182;8.716;2023-04-25T19:53:08;7.13;;;2.70;;
24567;SDS011;12731;52.182;8.716;2023-04-25T19:55:34;6.70;;;2.88;;
24567;SDS011;12731;52.182;8.716;2023-04-25T19:58:01;8.70;;;2.88;;
24567;SDS011;12731;52.182;8.716;2023-04-25T20:00:28;10.30;;;3.65;;
24567;SDS011;12731;52.182;8.716;2023-04-25T20:02:54;10.23;;;3.35;;
24567;SDS011;12731;52.182;8.716;2023-04-25T20:05:21;8.30;;;3.67;;
24567;SDS011;12731;52.182;8.716;2023-04-25T20:07:48;10.70;;;3.15;;
24567;SDS011;12731;52.182;8.716;2023-04-25T20:10:15;7.40;;;2.70;;
24567;SDS011;12731;52.182;8.716;2023-04-25T20:12:42;7.85;;;2.80;;
24567;SDS011;12731;52.182;8.716;2023-04-25T20:15:09;8.85;;;2.83;;
24567;SDS011;12731;52.182;8.716;2023-04-25T20:17:37;9.73;;;3.38;;
24567;SDS011;12731;52.182;8.716;2023-04-25T20:20:05;7.80;;;3.53;;
24567;SDS011;12731;52.182;8.716;2023-04-25T20:22:32;6.72;;;3.20;;
24567;SDS011;12731;52.182;8.716;2023-04-25T20:25:02;5.47;;;2.85;;
24567;SDS011;12731;52.182;8.716;2023-04-25T20:27:30;8.88;;;2.88;;
24567;SDS011;12731;52.182;8.716;2023-04-25T20:29:57;7.35;;;2.60;;
24567;SDS011;12731;52.182;8.716;2023-04-25T20:32:28;8.98;;;2.67;;
24567;SDS011;12731;52.182;8.716;2023-04-25T20:34:56;7.75;;;2.63;;
24567;SDS011;12731;52.182;8.716;2023-04-25T20:37:23;8.10;;;2.65;;
24567;SDS011;12731;52.182;8.716;2023-04-25T20:39:49;11.20;;;3.17;;
24567;SDS011;12731;52.182;8.716;2023-04-25T20:42:16;9.82;;;3.03;;
24567;SDS011;12731;52.182;8.716;2023-04-25T20:44:42;9.30;;;3.10;;
24567;SDS011;12731;52.182;8.716;2023-04-25T20:47:09;10.40;;;2.92;;
24567;SDS011;12731;52.182;8.716;2023-04-25T20:49:35;6.43;;;2.72;;
24567;SDS011;12731;52.182;8.716;2023-04-25T20:52:02;9.13;;;2.80;;
24567;SDS011;12731;52.182;8.716;2023-04-25T20:54:28;9.98;;;3.40;;
24567;SDS011;12731;52.182;8.716;2023-04-25T20:56:57;9.98;;;3.38;;
24567;SDS011;12731;52.182;8.716;2023-04-25T20:59:23;5.50;;;2.60;;
24567;SDS011;12731;52.182;8.716;2023-04-25T21:01:51;10.52;;;2.67;;
24567;SDS011;12731;52.182;8.716;2023-04-25T21:04:19;5.90;;;2.95;;
24567;SDS011;12731;52.182;8.716;2023-04-25T21:06:46;7.95;;;3.05;;
24567;SDS011;12731;52.182;8.716;2023-04-25T21:09:12;10.27;;;3.03;;
24567;SDS011;12731;52.182;8.716;2023-04-25T21:11:39;7.68;;;2.60;;
24567;SDS011;12731;52.182;8.716;2023-04-25T21:14:06;7.18;;;3.15;;
24567;SDS011;12731;52.182;8.716;2023-04-25T21:16:32;6.93;;;3.22;;
24567;SDS011;12731;52.182;8.716;2023-04-25T21:19:00;6.50;;;2.75;;
24567;SDS011;12731;52.182;8.716;2023-04-25T21:21:27;5.35;;;2.70;;
24567;SDS011;12731;52.182;8.716;2023-04-25T21:23:53;5.60;;;2.80;;
24567;SDS011;12731;52.182;8.716;2023-04-25T21:26:20;8.88;;;2.92;;
24567;SDS011;12731;52.182;8.716;2023-04-25T21:28:47;8.43;;;3.20;;